createdAt,value
2023-02-01T00:01:46.727Z,3.00
2023-02-01T00:04:15.295Z,3.40
2023-02-01T00:06:44.891Z,2.70
2023-02-01T00:09:13.907Z,2.00
2023-02-01T00:11:42.261Z,2.50
2023-02-01T00:14:11.305Z,3.40
2023-02-01T00:16:39.751Z,2.90
2023-02-01T00:19:14.129Z,3.40
2023-02-01T00:21:42.745Z,3.30
2023-02-01T00:24:11.343Z,2.70
2023-02-01T00:26:44.600Z,2.80
2023-02-01T00:31:42.700Z,2.50
2023-02-01T00:34:13.128Z,2.00
2023-02-01T00:36:43.455Z,2.90
2023-02-01T00:39:12.169Z,3.30
2023-02-01T00:41:41.658Z,3.20
2023-02-01T00:44:10.121Z,3.00
2023-02-01T00:46:38.665Z,2.50
2023-02-01T00:49:08.822Z,3.00
2023-02-01T00:51:38.046Z,3.20
2023-02-01T00:54:06.932Z,2.70
2023-02-01T00:56:35.598Z,2.90
2023-02-01T00:59:04.698Z,3.20
2023-02-01T01:01:33.397Z,2.90
2023-02-01T01:04:02.785Z,2.50
2023-02-01T01:06:32.959Z,3.20
2023-02-01T01:09:03.689Z,2.80
2023-02-01T01:11:34.407Z,2.80
2023-02-01T01:14:03.645Z,2.70
2023-02-01T01:16:32.789Z,2.90
2023-02-01T01:19:01.764Z,2.30
2023-02-01T01:21:31.021Z,3.40
2023-02-01T01:23:59.663Z,3.00
2023-02-01T01:26:29.095Z,3.00
2023-02-01T01:28:58.543Z,2.90
2023-02-01T01:31:26.982Z,2.60
2023-02-01T01:33:57.610Z,3.50
2023-02-01T01:36:26.652Z,3.30
2023-02-01T01:38:54.930Z,2.70
2023-02-01T01:49:18.753Z,2.50
2023-02-01T01:51:58.597Z,3.30
2023-02-01T01:54:30.054Z,3.80
2023-02-01T01:57:00.484Z,3.10
2023-02-01T01:59:29.156Z,2.60
2023-02-01T02:01:57.649Z,2.60
2023-02-01T02:04:26.832Z,3.10
2023-02-01T02:07:07.937Z,3.20
2023-02-01T02:09:36.776Z,2.50
2023-02-01T02:12:06.021Z,2.40
2023-02-01T02:14:34.525Z,2.90
2023-02-01T02:17:06.081Z,3.40
2023-02-01T02:19:43.859Z,2.80
2023-02-01T02:22:15.396Z,1.90
2023-02-01T02:25:12.746Z,2.40
2023-02-01T02:28:11.066Z,3.10
2023-02-01T02:31:01.677Z,2.90
2023-02-01T02:33:33.184Z,3.10
2023-02-01T02:36:10.767Z,3.00
2023-02-01T02:38:47.268Z,3.00
2023-02-01T02:41:39.875Z,3.50
2023-02-01T02:44:31.809Z,2.00
2023-02-01T02:47:22.102Z,3.20
2023-02-01T02:50:16.080Z,3.20
2023-02-01T02:53:08.020Z,2.60
2023-02-01T02:55:38.077Z,2.60
2023-02-01T02:58:25.349Z,2.80
2023-02-01T03:01:12.841Z,2.70
2023-02-01T03:04:01.104Z,2.50
2023-02-01T03:06:30.524Z,2.60
2023-02-01T03:08:59.006Z,3.30
2023-02-01T03:11:50.534Z,3.10
2023-02-01T03:14:20.234Z,2.60
2023-02-01T03:16:53.053Z,3.40
2023-02-01T03:19:27.079Z,2.20
2023-02-01T03:22:25.207Z,2.50
2023-02-01T03:25:02.110Z,3.10
2023-02-01T03:27:35.802Z,3.00
2023-02-01T03:30:09.790Z,2.50
2023-02-01T03:32:58.178Z,3.00
2023-02-01T03:35:55.805Z,2.20
2023-02-01T03:38:29.401Z,3.30
2023-02-01T03:41:07.748Z,2.60
2023-02-01T03:43:44.049Z,3.30
2023-02-01T03:46:14.141Z,3.90
2023-02-01T03:48:43.095Z,4.80
2023-02-01T03:51:11.775Z,3.90
2023-02-01T03:53:41.584Z,3.40
2023-02-01T03:56:10.781Z,2.90
2023-02-01T04:06:14.948Z,2.80
2023-02-01T04:08:43.756Z,3.30
2023-02-01T04:11:12.424Z,4.50
2023-02-01T04:13:42.647Z,2.10
2023-02-01T04:16:10.931Z,2.70
2023-02-01T04:18:39.601Z,2.60
2023-02-01T04:21:08.085Z,3.00
2023-02-01T04:23:37.592Z,2.20
2023-02-01T04:26:06.068Z,2.20
2023-02-01T04:28:35.881Z,2.90
2023-02-01T04:31:04.962Z,3.80
2023-02-01T04:33:33.773Z,2.20
2023-02-01T04:36:02.375Z,2.60
2023-02-01T04:38:33.388Z,2.80
2023-02-01T04:41:01.807Z,2.90
2023-02-01T04:43:30.462Z,3.60
2023-02-01T04:45:58.965Z,2.80
2023-02-01T04:48:29.260Z,2.60
2023-02-01T04:50:57.756Z,3.20
2023-02-01T04:53:26.832Z,3.30
2023-02-01T04:55:56.960Z,3.50
2023-02-01T04:58:25.856Z,3.00
2023-02-01T05:00:54.698Z,3.30
2023-02-01T05:03:23.158Z,3.80
2023-02-01T05:05:54.821Z,2.30
2023-02-01T05:08:23.861Z,3.20
2023-02-01T05:10:52.447Z,2.40
2023-02-01T05:13:39.794Z,3.00
2023-02-01T05:16:08.619Z,2.40
2023-02-01T05:18:37.150Z,3.10
2023-02-01T05:21:06.133Z,2.90
2023-02-01T05:23:54.479Z,2.70
2023-02-01T05:26:25.601Z,2.40
2023-02-01T05:28:54.841Z,2.40
2023-02-01T05:31:23.527Z,3.00
2023-02-01T05:33:52.285Z,2.90
2023-02-01T05:36:20.879Z,2.20
2023-02-01T05:38:50.272Z,2.20
2023-02-01T05:41:19.209Z,1.90
2023-02-01T05:43:48.671Z,2.30
2023-02-01T05:46:17.290Z,3.10
2023-02-01T05:48:46.344Z,2.30
2023-02-01T05:51:14.927Z,1.70
2023-02-01T05:53:43.721Z,3.40
2023-02-01T05:56:12.319Z,3.00
2023-02-01T05:58:40.893Z,2.90
2023-02-01T06:01:09.493Z,2.20
2023-02-01T06:03:38.677Z,2.20
2023-02-01T06:06:07.502Z,1.20
2023-02-01T06:08:36.764Z,2.20
2023-02-01T06:11:06.057Z,2.20
2023-02-01T06:13:34.985Z,2.10
2023-02-01T06:16:04.596Z,2.20
2023-02-01T06:18:36.207Z,2.80
2023-02-01T06:21:05.027Z,2.60
2023-02-01T06:23:34.942Z,2.50
2023-02-01T06:26:08.781Z,2.40
2023-02-01T06:28:37.292Z,2.00
2023-02-01T06:31:07.925Z,2.60
2023-02-01T06:33:37.864Z,1.50
2023-02-01T06:36:10.723Z,1.90
2023-02-01T06:38:40.126Z,1.90
2023-02-01T06:41:08.847Z,3.50
2023-02-01T06:43:38.519Z,3.50
2023-02-01T06:46:08.733Z,2.30
2023-02-01T06:48:37.957Z,2.80
2023-02-01T06:51:06.827Z,3.10
2023-02-01T06:53:37.459Z,3.90
2023-02-01T06:56:06.231Z,3.60
2023-02-01T06:58:34.837Z,2.30
2023-02-01T07:01:07.686Z,1.90
2023-02-01T07:03:36.945Z,2.70
2023-02-01T07:06:06.159Z,2.80
2023-02-01T07:08:38.387Z,3.00
2023-02-01T07:11:08.901Z,2.80
2023-02-01T07:13:37.598Z,1.70
2023-02-01T07:16:08.643Z,2.50
2023-02-01T07:18:37.243Z,2.70
2023-02-01T07:21:06.062Z,5.10
2023-02-01T07:23:35.018Z,2.90
2023-02-01T07:26:05.185Z,3.70
2023-02-01T07:28:35.333Z,2.80
2023-02-01T07:31:16.645Z,2.40
2023-02-01T07:33:45.302Z,2.60
2023-02-01T07:36:16.149Z,3.20
2023-02-01T07:38:45.133Z,3.20
2023-02-01T07:41:13.552Z,2.40
2023-02-01T07:43:42.407Z,2.00
2023-02-01T07:46:10.861Z,1.30
2023-02-01T07:48:39.772Z,2.70
2023-02-01T07:51:13.196Z,2.50
2023-02-01T07:56:14.359Z,1.90
2023-02-01T07:58:42.731Z,2.70
2023-02-01T08:01:21.308Z,2.30
2023-02-01T08:04:03.324Z,2.80
2023-02-01T08:06:33.643Z,2.30
2023-02-01T08:09:04.582Z,1.70
2023-02-01T08:11:33.075Z,1.50
2023-02-01T08:14:01.343Z,1.80
2023-02-01T08:16:30.482Z,1.20
2023-02-01T08:18:59.052Z,2.10
2023-02-01T08:21:37.602Z,1.50
2023-02-01T08:24:07.756Z,0.90
2023-02-01T08:26:38.559Z,1.20
2023-02-01T08:29:08.227Z,1.20
2023-02-01T08:31:36.810Z,1.40
2023-02-01T08:34:05.568Z,1.20
2023-02-01T08:36:34.115Z,1.50
2023-02-01T08:39:07.165Z,1.40
2023-02-01T08:41:35.843Z,1.10
2023-02-01T08:44:04.615Z,1.20
2023-02-01T08:46:33.194Z,1.40
2023-02-01T08:49:02.116Z,0.90
2023-02-01T08:51:30.985Z,1.10
2023-02-01T08:53:59.598Z,0.90
2023-02-01T08:56:28.291Z,0.80
2023-02-01T08:58:57.338Z,1.30
2023-02-01T09:01:26.457Z,1.10
2023-02-01T09:03:55.352Z,1.20
2023-02-01T09:06:23.706Z,1.70
2023-02-01T09:08:52.803Z,1.20
2023-02-01T09:11:21.687Z,1.50
2023-02-01T09:13:51.321Z,1.40
2023-02-01T09:16:20.303Z,1.40
2023-02-01T09:18:56.081Z,1.30
2023-02-01T09:21:36.909Z,1.30
2023-02-01T09:24:05.838Z,0.90
2023-02-01T09:26:34.372Z,1.70
2023-02-01T09:29:03.309Z,1.30
2023-02-01T09:31:32.271Z,1.90
2023-02-01T09:34:01.461Z,2.50
2023-02-01T09:36:31.342Z,1.50
2023-02-01T09:39:00.601Z,2.80
2023-02-01T09:41:35.661Z,2.00
2023-02-01T09:44:42.462Z,2.00
2023-02-01T09:47:15.120Z,1.80
2023-02-01T09:49:51.605Z,1.90
2023-02-01T09:52:24.006Z,2.00
2023-02-01T09:54:58.536Z,1.60
2023-02-01T09:57:29.824Z,1.50
2023-02-01T10:00:02.349Z,1.90
2023-02-01T10:02:41.093Z,2.00
2023-02-01T10:05:16.395Z,2.00
2023-02-01T10:07:54.954Z,1.50
2023-02-01T10:10:32.224Z,2.00
2023-02-01T10:13:34.728Z,1.70
2023-02-01T10:16:04.233Z,2.00
2023-02-01T10:19:09.774Z,1.90
2023-02-01T10:22:11.000Z,1.60
2023-02-01T10:25:03.754Z,2.20
2023-02-01T10:27:36.792Z,1.90
2023-02-01T10:30:11.971Z,1.70
2023-02-01T10:32:40.795Z,1.40
2023-02-01T10:35:19.046Z,1.90
2023-02-01T10:37:48.071Z,1.70
2023-02-01T10:40:23.748Z,1.70
2023-02-01T10:50:10.915Z,1.80
2023-02-01T10:52:54.411Z,1.30
2023-02-01T10:55:34.070Z,1.90
2023-02-01T10:58:04.069Z,1.70
2023-02-01T11:00:43.359Z,1.30
2023-02-01T11:03:40.381Z,1.40
2023-02-01T11:06:21.870Z,1.40
2023-02-01T11:08:52.866Z,1.40
2023-02-01T11:11:22.181Z,1.70
2023-02-01T11:14:00.333Z,1.50
2023-02-01T11:16:38.805Z,1.80
2023-02-01T11:19:09.261Z,0.70
2023-02-01T11:21:39.527Z,1.20
2023-02-01T11:24:24.514Z,1.30
2023-02-01T11:26:57.061Z,1.40
2023-02-01T11:29:31.012Z,1.70
2023-02-01T11:32:00.524Z,1.90
2023-02-01T11:34:38.128Z,1.20
2023-02-01T11:37:06.606Z,1.30
2023-02-01T11:39:36.293Z,1.50
2023-02-01T11:42:07.281Z,1.60
2023-02-01T11:44:38.568Z,1.40
2023-02-01T11:47:24.774Z,1.60
2023-02-01T11:49:58.079Z,1.40
2023-02-01T11:52:50.733Z,1.70
2023-02-01T11:55:38.239Z,1.40
2023-02-01T11:58:26.231Z,1.80
2023-02-01T12:01:10.327Z,1.60
2023-02-01T12:03:38.861Z,2.10
2023-02-01T12:06:16.017Z,1.80
2023-02-01T12:09:09.597Z,1.10
2023-02-01T12:11:54.541Z,1.40
2023-02-01T12:14:39.907Z,1.10
2023-02-01T12:17:30.908Z,1.40
2023-02-01T12:20:15.080Z,1.30
2023-02-01T12:22:48.706Z,1.10
2023-02-01T12:25:29.554Z,2.00
2023-02-01T12:28:03.962Z,1.40
2023-02-01T12:30:41.977Z,1.90
2023-02-01T12:33:39.938Z,1.30
2023-02-01T12:36:11.862Z,1.30
2023-02-01T12:38:55.017Z,1.20
2023-02-01T12:41:46.131Z,1.10
2023-02-01T12:44:36.528Z,1.50
2023-02-01T12:47:31.933Z,2.20
2023-02-01T12:50:19.294Z,1.50
2023-02-01T12:52:50.340Z,2.60
2023-02-01T12:58:35.301Z,1.80
2023-02-01T13:01:11.593Z,1.60
2023-02-01T13:04:01.865Z,1.20
2023-02-01T13:06:36.234Z,1.30
2023-02-01T13:09:26.269Z,1.10
2023-02-01T13:11:56.990Z,1.60
2023-02-01T13:15:03.857Z,1.80
2023-02-01T13:17:34.083Z,2.40
2023-02-01T13:20:17.817Z,1.60
2023-02-01T13:23:18.050Z,1.10
2023-02-01T13:25:51.762Z,1.40
2023-02-01T13:28:35.608Z,1.60
2023-02-01T13:34:00.041Z,1.20
2023-02-01T13:36:48.657Z,1.90
2023-02-01T13:39:26.854Z,1.60
2023-02-01T13:42:04.428Z,1.50
2023-02-01T13:44:33.355Z,1.80
2023-02-01T13:47:03.727Z,1.60
2023-02-01T13:49:33.988Z,1.10
2023-02-01T13:52:02.263Z,1.90
2023-02-01T13:54:34.020Z,0.80
2023-02-01T13:57:03.831Z,1.40
2023-02-01T13:59:41.942Z,1.60
2023-02-01T14:02:41.958Z,1.50
2023-02-01T14:05:35.624Z,1.30
2023-02-01T14:08:16.907Z,1.00
2023-02-01T14:10:50.539Z,1.20
2023-02-01T14:16:07.059Z,1.30
2023-02-01T14:18:39.119Z,1.00
2023-02-01T14:21:34.480Z,1.80
2023-02-01T14:24:23.161Z,1.70
2023-02-01T14:26:53.730Z,1.20
2023-02-01T14:29:42.144Z,1.40
2023-02-01T14:32:18.728Z,1.70
2023-02-01T14:34:48.979Z,1.10
2023-02-01T14:37:17.653Z,1.70
2023-02-01T14:39:46.435Z,1.70
2023-02-01T14:42:59.978Z,1.20
2023-02-01T14:45:29.268Z,1.30
2023-02-01T14:48:07.091Z,1.70
2023-02-01T14:50:41.753Z,1.50
2023-02-01T14:53:13.744Z,1.70
2023-02-01T14:55:57.187Z,1.80
2023-02-01T14:58:51.096Z,2.00
2023-02-01T15:01:30.537Z,2.30
2023-02-01T15:04:12.072Z,1.70
2023-02-01T15:07:00.107Z,1.20
2023-02-01T15:09:31.498Z,2.40
2023-02-01T15:12:29.010Z,1.50
2023-02-01T15:15:18.272Z,1.70
2023-02-01T15:18:01.082Z,1.50
2023-02-01T15:20:33.980Z,1.40
2023-02-01T15:23:06.962Z,1.60
2023-02-01T15:25:39.856Z,1.30
2023-02-01T15:28:15.189Z,1.10
2023-02-01T15:31:01.510Z,1.20
2023-02-01T15:33:31.095Z,1.40
2023-02-01T15:36:13.800Z,1.00
2023-02-01T15:38:43.518Z,1.30
2023-02-01T15:41:12.140Z,1.30
2023-02-01T15:43:42.117Z,1.20
2023-02-01T15:46:15.952Z,1.20
2023-02-01T15:48:51.586Z,1.40
2023-02-01T15:51:22.347Z,0.70
2023-02-01T15:53:58.425Z,1.40
2023-02-01T15:56:38.492Z,1.70
2023-02-01T15:59:15.306Z,1.80
2023-02-01T16:01:43.638Z,1.90
2023-02-01T16:04:20.874Z,2.10
2023-02-01T16:06:50.803Z,1.20
2023-02-01T16:09:24.887Z,1.00
2023-02-01T16:12:01.077Z,1.30
2023-02-01T16:14:29.941Z,1.60
2023-02-01T16:16:59.499Z,1.70
2023-02-01T16:19:29.608Z,1.80
2023-02-01T16:22:00.500Z,1.60
2023-02-01T16:24:29.028Z,1.60
2023-02-01T16:26:57.704Z,1.50
2023-02-01T16:29:26.352Z,1.70
2023-02-01T16:31:58.160Z,1.70
2023-02-01T16:34:26.791Z,1.30
2023-02-01T16:36:58.460Z,1.80
2023-02-01T16:39:29.112Z,1.50
2023-02-01T16:41:59.992Z,2.10
2023-02-01T16:44:30.133Z,1.50
2023-02-01T16:46:58.413Z,1.90
2023-02-01T16:49:27.612Z,1.70
2023-02-01T16:51:58.381Z,2.10
2023-02-01T16:54:27.955Z,1.20
2023-02-01T16:56:57.461Z,1.90
2023-02-01T16:59:26.553Z,1.50
2023-02-01T17:01:55.961Z,1.50
2023-02-01T17:04:24.387Z,2.30
2023-02-01T17:06:53.229Z,1.70
2023-02-01T17:09:22.024Z,2.30
2023-02-01T17:11:51.001Z,2.20
2023-02-01T17:14:20.914Z,1.30
2023-02-01T17:16:50.282Z,1.30
2023-02-01T17:19:20.642Z,1.60
2023-02-01T17:21:51.884Z,2.60
2023-02-01T17:24:22.205Z,2.10
2023-02-01T17:26:51.920Z,2.00
2023-02-01T17:29:20.605Z,2.40
2023-02-01T17:31:53.380Z,2.30
2023-02-01T17:34:22.685Z,2.30
2023-02-01T17:36:51.899Z,2.10
2023-02-01T17:39:39.109Z,2.40
2023-02-01T17:42:11.170Z,1.50
2023-02-01T17:44:41.988Z,2.60
2023-02-01T17:47:12.433Z,2.90
2023-02-01T17:49:41.019Z,1.60
2023-02-01T17:52:15.536Z,1.90
2023-02-01T17:54:46.754Z,2.00
2023-02-01T17:57:15.163Z,1.80
2023-02-01T17:59:45.514Z,2.10
2023-02-01T18:02:20.007Z,2.50
2023-02-01T18:04:50.434Z,2.50
2023-02-01T18:09:51.593Z,1.40
2023-02-01T18:12:21.941Z,2.00
2023-02-01T18:14:51.260Z,1.60
2023-02-01T18:17:20.524Z,2.50
2023-02-01T18:19:49.613Z,1.90
2023-02-01T18:22:19.539Z,2.20
2023-02-01T18:24:50.361Z,2.30
2023-02-01T18:27:19.047Z,1.80
2023-02-01T18:29:48.761Z,2.70
2023-02-01T18:32:17.587Z,1.80
2023-02-01T18:34:46.126Z,2.20
2023-02-01T18:37:14.605Z,2.30
2023-02-01T18:39:43.466Z,2.40
2023-02-01T18:42:12.329Z,1.80
2023-02-01T18:44:40.972Z,1.80
2023-02-01T18:47:09.978Z,3.00
2023-02-01T18:49:38.546Z,3.30
2023-02-01T18:52:07.334Z,2.40
2023-02-01T18:54:35.743Z,3.20
2023-02-01T18:57:07.491Z,1.60
2023-02-01T18:59:36.461Z,2.30
2023-02-01T19:02:04.963Z,2.30
2023-02-01T19:04:37.421Z,1.40
2023-02-01T19:07:05.898Z,2.50
2023-02-01T19:09:36.534Z,2.90
2023-02-01T19:12:05.832Z,1.20
2023-02-01T19:14:37.592Z,2.10
2023-02-01T19:17:06.194Z,1.60
2023-02-01T19:19:34.659Z,2.50
2023-02-01T19:22:04.370Z,2.40
2023-02-01T19:24:32.955Z,2.60
2023-02-01T19:27:01.648Z,1.70
2023-02-01T19:29:32.540Z,2.10
2023-02-01T19:32:00.802Z,2.60
2023-02-01T19:34:30.245Z,2.30
2023-02-01T19:37:02.014Z,2.10
2023-02-01T19:39:31.803Z,2.60
2023-02-01T19:42:00.633Z,2.70
2023-02-01T19:44:33.074Z,2.30
2023-02-01T19:47:01.677Z,3.40
2023-02-01T19:49:30.246Z,2.70
2023-02-01T19:51:58.668Z,2.70
2023-02-01T19:54:27.597Z,2.80
2023-02-01T19:56:56.393Z,3.00
2023-02-01T19:59:26.417Z,2.60
2023-02-01T20:01:53.902Z,2.50
2023-02-01T20:04:23.445Z,2.80
2023-02-01T20:06:55.100Z,2.80
2023-02-01T20:09:26.299Z,2.90
2023-02-01T20:11:55.134Z,2.40
2023-02-01T20:14:26.168Z,3.10
2023-02-01T20:16:54.566Z,2.60
2023-02-01T20:19:23.241Z,2.60
2023-02-01T20:21:51.975Z,2.60
2023-02-01T20:24:20.622Z,3.90
2023-02-01T20:26:50.296Z,2.80
2023-02-01T20:29:19.409Z,2.10
2023-02-01T20:31:47.810Z,2.30
2023-02-01T20:34:16.432Z,2.90
2023-02-01T20:36:45.247Z,2.60
2023-02-01T20:39:13.601Z,2.30
2023-02-01T20:41:43.695Z,3.00
2023-02-01T20:44:12.108Z,3.10
2023-02-01T20:46:40.835Z,2.80
2023-02-01T20:49:09.472Z,2.60
2023-02-01T20:51:38.060Z,2.10
2023-02-01T20:54:06.562Z,3.00
2023-02-01T20:56:35.667Z,2.50
2023-02-01T20:59:04.218Z,2.60
2023-02-01T21:01:32.903Z,3.40
2023-02-01T21:04:01.930Z,2.60
2023-02-01T21:06:34.377Z,2.20
2023-02-01T21:09:03.288Z,3.30
2023-02-01T21:11:31.679Z,2.60
2023-02-01T21:14:00.845Z,2.50
2023-02-01T21:16:29.563Z,2.70
2023-02-01T21:18:58.360Z,3.30
2023-02-01T21:21:27.103Z,2.90
2023-02-01T21:23:59.412Z,3.00
2023-02-01T21:26:28.141Z,2.80
2023-02-01T21:28:57.063Z,2.30
2023-02-01T21:31:26.243Z,2.60
2023-02-01T21:33:54.644Z,2.60
2023-02-01T21:36:23.731Z,2.20
2023-02-01T21:38:53.379Z,2.30
2023-02-01T21:41:43.437Z,3.10
2023-02-01T21:44:14.906Z,2.60
2023-02-01T21:46:44.503Z,2.20
2023-02-01T21:49:13.053Z,3.00
2023-02-01T21:51:42.859Z,2.70
2023-02-01T21:54:11.985Z,2.50
2023-02-01T21:56:41.884Z,3.30
2023-02-01T21:59:10.574Z,2.50
2023-02-01T22:01:41.110Z,2.60
2023-02-01T22:04:10.708Z,1.60
2023-02-01T22:06:47.275Z,2.60
2023-02-01T22:09:18.482Z,2.20
2023-02-01T22:11:46.824Z,2.30
2023-02-01T22:14:17.348Z,2.30
2023-02-01T22:16:46.267Z,2.40
2023-02-01T22:19:15.409Z,3.50
2023-02-01T22:21:48.186Z,2.80
2023-02-01T22:24:17.902Z,3.00
2023-02-01T22:26:46.325Z,2.80
2023-02-01T22:29:15.416Z,2.60
2023-02-01T22:31:44.127Z,1.80
2023-02-01T22:34:13.048Z,3.00
2023-02-01T22:36:41.530Z,3.10
2023-02-01T22:39:10.237Z,2.80
2023-02-01T22:41:39.276Z,3.30
2023-02-01T22:44:07.786Z,2.80
2023-02-01T22:46:36.278Z,2.00
2023-02-01T22:49:05.052Z,3.00
2023-02-01T22:51:33.734Z,2.30
2023-02-01T22:54:02.521Z,2.50
2023-02-01T22:56:35.100Z,3.70
2023-02-01T22:59:05.541Z,3.30
2023-02-01T23:01:34.224Z,2.10
2023-02-01T23:04:06.271Z,1.80
2023-02-01T23:06:35.148Z,2.90
2023-02-01T23:09:13.856Z,2.60
2023-02-01T23:11:43.592Z,2.10
2023-02-01T23:14:13.500Z,2.90
2023-02-01T23:16:44.413Z,3.20
2023-02-01T23:19:13.062Z,2.10
2023-02-01T23:21:42.208Z,1.90
2023-02-01T23:24:11.811Z,2.60
2023-02-01T23:26:40.757Z,2.20
2023-02-01T23:29:10.927Z,2.80
2023-02-01T23:31:39.450Z,2.30
2023-02-01T23:34:08.093Z,3.20
2023-02-01T23:36:37.693Z,2.10
2023-02-01T23:39:06.037Z,2.40
2023-02-01T23:41:34.864Z,2.80
2023-02-01T23:44:03.543Z,3.50
2023-02-01T23:46:47.412Z,3.10
2023-02-01T23:49:16.998Z,2.60
2023-02-01T23:51:47.932Z,3.30
2023-02-01T23:54:16.361Z,2.60
2023-02-01T23:56:45.662Z,2.70
2023-02-01T23:59:18.939Z,2.70
